Time;durP1;ratioP1;P1;durP2;ratioP2;P2;SDS_P1;SDS_P2;PMS_P1;PMS_P2;Temp;Humidity;BMP_temperature;BMP_pressure;BME280_temperature;BME280_humidity;BME280_pressure;Samples;Min_cycle;Max_cycle;Signal;HPM_P1;HPM_P2
2021/03/26 00:01:41;;;;;;;8.23;4.95;;;;;;;12.26;37.70;101639.91;5090287;28;20468;-69
2021/03/26 00:04:12;;;;;;;9.65;5.75;;;;;;;12.24;37.57;101632.78;5097327;28;20045;-69
2021/03/26 00:06:42;;;;;;;9.00;5.28;;;;;;;12.22;37.38;101627.44;5100415;28;20759;-70
2021/03/26 00:09:14;;;;;;;10.00;5.60;;;;;;;12.20;37.82;101626.66;5101024;28;20088;-70
2021/03/26 00:11:41;;;;;;;9.38;5.47;;;;;;;12.15;37.43;101631.66;5067220;28;20056;-70
2021/03/26 00:14:09;;;;;;;7.45;5.10;;;;;;;12.15;37.55;101625.31;5087633;28;20105;-70
2021/03/26 00:16:37;;;;;;;9.70;5.25;;;;;;;12.14;37.30;101623.56;5087586;28;20110;-70
2021/03/26 00:19:06;;;;;;;8.18;5.28;;;;;;;12.12;37.44;101629.16;5069829;28;20044;-71
2021/03/26 00:21:33;;;;;;;8.57;5.32;;;;;;;12.10;37.30;101628.41;5087427;28;20035;-70
2021/03/26 00:24:02;;;;;;;7.90;5.10;;;;;;;12.08;37.58;101618.59;5087630;28;20036;-70
2021/03/26 00:26:30;;;;;;;9.48;4.93;;;;;;;12.08;37.76;101624.94;5095728;28;20044;-70
2021/03/26 00:29:19;;;;;;;7.25;4.88;;;;;;;12.05;37.60;101622.44;5092995;28;20086;-71
2021/03/26 00:31:47;;;;;;;8.45;5.18;;;;;;;12.02;37.80;101623.53;5088177;28;20040;-71
2021/03/26 00:34:17;;;;;;;9.05;5.50;;;;;;;12.02;37.70;101628.16;5106207;28;20061;-69
2021/03/26 00:36:45;;;;;;;10.35;5.93;;;;;;;12.00;37.58;101616.47;5099298;28;20044;-70
2021/03/26 00:39:12;;;;;;;9.35;5.75;;;;;;;11.98;37.57;101622.06;5082501;28;20049;-70
2021/03/26 00:41:40;;;;;;;8.35;4.93;;;;;;;11.97;37.91;101622.19;5085185;28;20048;-69
2021/03/26 00:44:08;;;;;;;9.98;5.90;;;;;;;11.95;37.85;101618.69;5081362;28;20184;-70
2021/03/26 00:46:38;;;;;;;9.55;5.47;;;;;;;11.94;37.70;101608.69;5082778;28;20131;-70
2021/03/26 00:49:06;;;;;;;8.38;5.30;;;;;;;11.93;37.93;101606.97;5066563;28;20043;-69
2021/03/26 00:51:34;;;;;;;9.48;5.95;;;;;;;11.91;37.96;101611.72;5070111;28;20140;-71
2021/03/26 00:54:01;;;;;;;8.63;5.38;;;;;;;11.89;37.82;101613.66;5072834;28;20048;-70
2021/03/26 00:56:31;;;;;;;9.38;5.88;;;;;;;11.89;37.84;101610.91;5091114;28;20036;-70
2021/03/26 00:58:59;;;;;;;10.13;5.80;;;;;;;11.87;37.79;101608.28;5073125;28;20040;-69
2021/03/26 01:01:27;;;;;;;10.05;6.10;;;;;;;11.84;37.81;101607.69;5076304;28;20547;-70
2021/03/26 01:03:54;;;;;;;10.27;5.90;;;;;;;11.82;37.97;101606.94;5078614;28;20043;-69
2021/03/26 01:06:22;;;;;;;9.10;5.93;;;;;;;11.81;38.03;101605.19;5107087;28;20198;-70
2021/03/26 01:08:52;;;;;;;10.60;6.28;;;;;;;11.78;37.93;101606.28;5073049;28;20048;-71
2021/03/26 01:11:23;;;;;;;10.38;6.28;;;;;;;11.78;37.68;101603.53;5086975;28;20040;-70
2021/03/26 01:13:50;;;;;;;9.73;6.20;;;;;;;11.76;37.77;101593.72;5071439;28;20094;-70
2021/03/26 01:16:21;;;;;;;9.77;5.88;;;;;;;11.76;37.73;101605.56;5067962;28;20071;-70
2021/03/26 01:18:52;;;;;;;9.85;6.63;;;;;;;11.70;37.83;101597.78;5089530;28;20036;-69
2021/03/26 01:21:22;;;;;;;10.35;5.85;;;;;;;11.72;38.01;101597.69;5089105;28;20043;-70
2021/03/26 01:23:49;;;;;;;9.10;5.70;;;;;;;11.68;37.96;101594.34;5090079;28;20048;-71
2021/03/26 01:26:17;;;;;;;8.98;5.97;;;;;;;11.67;37.96;101589.84;5092455;28;20051;-69
2021/03/26 01:28:52;;;;;;;10.68;6.80;;;;;;;11.64;37.91;101595.56;5068416;28;21043;-70
2021/03/26 01:31:30;;;;;;;10.13;6.80;;;;;;;11.63;37.79;101589.19;5079293;28;20047;-70
2021/03/26 01:34:02;;;;;;;9.38;6.32;;;;;;;11.59;38.20;101581.34;5080272;28;20039;-69
2021/03/26 01:36:34;;;;;;;9.35;6.30;;;;;;;11.56;37.96;101578.84;5091455;28;20039;-70
2021/03/26 01:39:04;;;;;;;10.35;6.00;;;;;;;11.58;38.11;101579.59;5075805;28;20035;-70
2021/03/26 01:41:40;;;;;;;11.57;6.78;;;;;;;11.58;38.42;101576.88;5090262;28;20046;-69
2021/03/26 01:44:23;;;;;;;11.25;7.00;;;;;;;11.53;38.32;101571.72;5077266;28;20192;-69
2021/03/26 01:46:53;;;;;;;12.23;6.72;;;;;;;11.50;38.30;101572.00;5065542;28;20039;-69
2021/03/26 01:49:22;;;;;;;10.63;6.03;;;;;;;11.48;38.24;101576.72;5068779;28;20051;-69
2021/03/26 01:51:56;;;;;;;11.20;6.68;;;;;;;11.47;38.19;101571.34;5069542;28;20110;-69
2021/03/26 01:54:27;;;;;;;11.15;6.78;;;;;;;11.47;38.05;101569.47;5083015;28;20055;-70
2021/03/26 01:56:55;;;;;;;11.27;6.65;;;;;;;11.45;38.36;101571.47;5071519;28;20077;-71
2021/03/26 01:59:27;;;;;;;10.85;6.75;;;;;;;11.43;38.09;101561.66;5089079;28;20075;-70
2021/03/26 02:01:59;;;;;;;10.55;6.63;;;;;;;11.43;38.42;101562.53;5073517;28;20040;-70
2021/03/26 02:04:40;;;;;;;9.27;5.97;;;;;;;11.42;38.69;101560.78;5084659;28;20161;-70
2021/03/26 02:07:25;;;;;;;11.00;6.85;;;;;;;11.37;38.27;101560.25;5097152;28;20042;-70
2021/03/26 02:09:54;;;;;;;11.63;6.85;;;;;;;11.39;38.38;101549.16;5058057;28;20048;-70
2021/03/26 02:12:25;;;;;;;11.40;6.85;;;;;;;11.40;38.36;101548.19;5068222;28;20044;-70
2021/03/26 02:14:58;;;;;;;10.20;6.72;;;;;;;11.37;38.46;101545.66;5069764;28;20492;-70
2021/03/26 02:17:29;;;;;;;9.68;6.70;;;;;;;11.36;38.28;101541.22;5070859;28;20497;-70
2021/03/26 02:20:06;;;;;;;10.00;6.25;;;;;;;11.35;38.35;101543.06;5073444;28;20047;-70
2021/03/26 02:22:35;;;;;;;10.20;6.15;;;;;;;11.33;38.59;101545.06;5088141;28;20048;-69
2021/03/26 02:25:08;;;;;;;9.75;6.30;;;;;;;11.34;38.59;101543.19;5069840;28;20160;-70
2021/03/26 02:27:38;;;;;;;10.38;6.53;;;;;;;11.30;38.54;101545.28;5074385;28;20582;-70
2021/03/26 02:30:12;;;;;;;10.48;6.07;;;;;;;11.31;38.73;101543.41;5083743;28;20119;-69
2021/03/26 02:32:48;;;;;;;11.65;6.75;;;;;;;11.27;38.33;101548.28;5102003;28;20476;-70
2021/03/26 02:35:26;;;;;;;10.55;6.78;;;;;;;11.28;38.65;101544.53;5095552;28;20044;-70
2021/03/26 02:38:14;;;;;;;10.10;6.47;;;;;;;11.25;38.70;101542.03;5073772;28;20044;-70
2021/03/26 02:40:47;;;;;;;10.40;6.50;;;;;;;11.24;38.74;101535.69;5071241;28;20051;-69
2021/03/26 02:43:43;;;;;;;9.93;6.28;;;;;;;11.21;39.06;101543.25;5072191;28;20035;-70
2021/03/26 02:46:33;;;;;;;9.07;6.32;;;;;;;11.19;38.67;101537.06;5068241;28;20433;-71
2021/03/26 02:49:16;;;;;;;9.75;6.90;;;;;;;11.16;38.43;101535.41;5068121;28;20124;-70
2021/03/26 02:51:45;;;;;;;;;;;;;;;10.89;39.10;101537.56;5071327;28;20046;-70
2021/03/26 02:54:21;;;;;;;10.95;6.75;;;;;;;11.09;38.65;101538.75;5071460;28;19946;-71
2021/03/26 02:56:58;;;;;;;10.05;6.20;;;;;;;11.10;38.71;101537.78;5086696;28;20478;-70
2021/03/26 02:59:33;;;;;;;11.77;6.82;;;;;;;11.08;38.60;101542.50;5069557;28;20050;-70
2021/03/26 03:02:07;;;;;;;10.70;6.25;;;;;;;11.03;38.14;101536.50;5083424;28;20130;-70
2021/03/26 03:04:55;;;;;;;10.48;6.22;;;;;;;11.00;38.42;101543.09;5067103;28;20032;-70
2021/03/26 03:07:28;;;;;;;9.93;6.05;;;;;;;10.96;38.59;101538.81;5078388;28;20486;-69
2021/03/26 03:10:25;;;;;;;10.25;6.18;;;;;;;10.93;38.68;101533.59;5086477;28;20409;-70
2021/03/26 03:13:03;;;;;;;10.85;6.80;;;;;;;10.90;38.48;101533.81;5061993;28;20048;-70
2021/03/26 03:15:44;;;;;;;11.20;6.47;;;;;;;10.85;38.47;101533.31;5087099;28;20060;-70
2021/03/26 03:18:21;;;;;;;9.88;6.50;;;;;;;10.84;38.80;101531.56;5071386;28;20040;-70
2021/03/26 03:20:54;;;;;;;10.07;6.60;;;;;;;10.79;38.65;101534.59;5068390;28;20044;-71
2021/03/26 03:23:28;;;;;;;8.30;5.88;;;;;;;10.78;38.77;101529.28;5070618;28;20504;-70
2021/03/26 03:26:28;;;;;;;10.13;6.63;;;;;;;10.72;38.71;101527.88;5070223;28;20397;-69
2021/03/26 03:29:06;;;;;;;10.35;6.50;;;;;;;10.71;38.77;101527.97;5062578;28;20040;-69
2021/03/26 03:32:06;;;;;;;10.27;6.35;;;;;;;10.68;38.77;101528.22;5078015;28;20074;-70
2021/03/26 03:34:40;;;;;;;9.25;6.50;;;;;;;10.65;38.74;101529.31;5088814;28;20455;-69
2021/03/26 03:37:20;;;;;;;10.35;6.88;;;;;;;10.64;38.94;101527.56;5071460;28;20051;-71
2021/03/26 03:39:59;;;;;;;9.55;6.32;;;;;;;10.63;39.07;101533.16;5083314;28;20107;-70
2021/03/26 03:42:36;;;;;;;9.30;6.05;;;;;;;10.61;38.90;101526.94;5075543;28;20032;-70
2021/03/26 03:45:13;;;;;;;9.52;6.43;;;;;;;10.58;38.92;101525.31;5072267;28;20036;-71
2021/03/26 03:47:50;;;;;;;11.73;6.75;;;;;;;10.55;39.06;101522.81;5071718;28;20047;-70
2021/03/26 03:50:24;;;;;;;10.82;7.07;;;;;;;10.53;39.02;101513.84;5067557;28;20067;-68
2021/03/26 03:52:58;;;;;;;11.45;6.80;;;;;;;10.50;39.17;101514.97;5084295;28;20043;-70
2021/03/26 03:55:32;;;;;;;11.93;7.57;;;;;;;10.47;38.91;101509.69;5055474;28;20047;-69
2021/03/26 03:58:08;;;;;;;11.40;7.47;;;;;;;10.47;39.10;101511.56;5068098;28;20412;-70
2021/03/26 04:00:43;;;;;;;11.90;7.15;;;;;;;10.42;38.94;101511.94;5084329;28;20040;-70
2021/03/26 04:03:23;;;;;;;11.38;7.43;;;;;;;10.40;39.18;101513.91;5083437;28;20035;-70
2021/03/26 04:05:55;;;;;;;11.93;7.45;;;;;;;10.35;39.19;101507.91;5100726;22;20399;-80
2021/03/26 04:08:30;;;;;;;11.45;7.15;;;;;;;10.36;39.20;101508.78;5075080;28;20042;-81
2021/03/26 04:11:08;;;;;;;11.10;7.32;;;;;;;10.34;39.28;101508.03;5071136;28;20538;-80
2021/03/26 04:13:40;;;;;;;10.25;6.82;;;;;;;10.31;39.26;101508.25;5074726;28;20059;-81
2021/03/26 04:16:13;;;;;;;11.48;7.63;;;;;;;10.30;39.60;101501.03;5082986;28;20233;-81
2021/03/26 04:18:47;;;;;;;12.73;7.07;;;;;;;10.30;39.29;101503.75;5067095;28;20538;-81
2021/03/26 04:21:44;;;;;;;11.95;7.22;;;;;;;10.27;39.16;101506.75;5071537;27;20500;-81
2021/03/26 04:24:44;;;;;;;11.23;7.25;;;;;;;10.23;39.38;101506.09;5046018;27;20147;-82
2021/03/26 04:27:25;;;;;;;12.38;7.82;;;;;;;10.20;39.64;101503.59;5098524;28;20050;-82
2021/03/26 04:30:04;;;;;;;11.38;7.63;;;;;;;10.20;39.34;101500.00;5065149;27;20542;-81
2021/03/26 04:32:43;;;;;;;12.57;7.80;;;;;;;10.15;39.27;101500.31;5072475;27;20507;-81
2021/03/26 04:35:14;;;;;;;11.65;7.47;;;;;;;10.13;39.47;101505.88;5081796;28;20457;-81
2021/03/26 04:37:52;;;;;;;14.15;7.95;;;;;;;10.14;39.52;101502.16;5073635;28;20550;-81
2021/03/26 04:40:28;;;;;;;13.02;7.95;;;;;;;10.11;39.69;101502.41;5081627;28;20036;-81
2021/03/26 04:43:05;;;;;;;12.40;7.72;;;;;;;10.10;39.72;101502.53;5075443;28;20039;-82
2021/03/26 04:45:42;;;;;;;12.68;7.97;;;;;;;10.09;39.73;101504.38;5093539;28;20080;-80
2021/03/26 04:48:36;;;;;;;10.15;7.25;;;;;;;10.07;39.82;101500.88;5088605;28;20035;-81
2021/03/26 04:51:23;;;;;;;;;;;;;;;9.78;40.07;101501.28;5092420;28;20078;-82
2021/03/26 04:54:30;;;;;;;12.60;7.53;;;;;;;9.96;39.57;101494.47;5068258;28;19930;-80
2021/03/26 04:57:07;;;;;;;12.23;7.45;;;;;;;10.00;39.56;101496.00;5077866;28;20072;-81
2021/03/26 04:59:43;;;;;;;14.52;7.68;;;;;;;9.98;39.38;101490.63;5089628;27;20047;-82
2021/03/26 05:02:16;;;;;;;13.57;8.70;;;;;;;9.98;39.58;101498.81;5086392;28;20096;-82
2021/03/26 05:04:53;;;;;;;14.07;8.45;;;;;;;9.96;39.72;101494.47;5081311;28;20056;-81
2021/03/26 05:35:44;;;;;;;14.25;8.15;;;;;;;9.60;40.36;101487.94;4802430;29;20034;-82
2021/03/26 05:38:40;;;;;;;12.15;7.72;;;;;;;9.62;39.80;101490.56;4841936;29;20049;-83
2021/03/26 05:41:42;;;;;;;13.30;7.70;;;;;;;9.66;40.54;101492.09;4845616;29;20049;-83
2021/03/26 05:49:08;;;;;;;11.00;7.15;;;;;;;9.62;40.57;101490.56;4838542;29;20061;-82
2021/03/26 05:52:03;;;;;;;12.80;8.07;;;;;;;9.63;40.62;101495.06;4844888;29;20495;-83
2021/03/26 05:54:50;;;;;;;14.07;7.90;;;;;;;9.65;40.55;101496.66;4883614;29;20062;-82
2021/03/26 05:57:28;;;;;;;11.45;7.75;;;;;;;9.64;40.47;101500.38;4886645;29;20052;-82
2021/03/26 07:47:19;;;;;;;16.55;10.35;;;;;;;12.36;40.10;101467.16;4917577;29;20059;-82
2021/03/26 07:55:49;;;;;;;14.55;9.13;;;;;;;12.61;39.75;101471.44;4899604;28;20043;-81
2021/03/26 08:04:06;;;;;;;14.02;9.13;;;;;;;12.77;39.42;101461.75;4856717;29;20081;-81
2021/03/26 08:11:35;;;;;;;14.88;9.40;;;;;;;12.84;39.30;101453.91;4888227;28;20746;-79
2021/03/26 08:19:16;;;;;;;13.50;8.65;;;;;;;12.93;39.11;101465.97;4953684;28;20050;-82
2021/03/26 08:21:53;;;;;;;14.98;10.05;;;;;;;12.98;38.79;101458.22;4964502;28;20049;-82
2021/03/26 08:24:49;;;;;;;15.98;10.40;;;;;;;13.00;38.62;101461.69;4979691;28;20042;-81
2021/03/26 08:27:33;;;;;;;15.63;10.70;;;;;;;13.02;38.82;101459.66;4983512;28;20054;-80
2021/03/26 08:30:28;;;;;;;14.77;9.65;;;;;;;13.02;38.94;101462.41;4977074;28;20128;-82
2021/03/26 08:33:14;;;;;;;14.40;9.73;;;;;;;13.05;38.62;101454.78;4965134;28;20053;-81
2021/03/26 08:36:12;;;;;;;13.80;8.48;;;;;;;13.08;38.72;101460.03;4993959;28;20053;-81
2021/03/26 08:38:56;;;;;;;13.30;8.52;;;;;;;13.12;38.59;101456.00;4981927;28;20050;-79
2021/03/26 08:41:27;;;;;;;12.88;8.85;;;;;;;13.13;38.69;101456.88;5061224;28;20101;-81
2021/03/26 08:43:56;;;;;;;12.88;9.27;;;;;;;13.17;38.05;101461.94;5091228;28;20064;-81
2021/03/26 08:46:27;;;;;;;11.93;8.50;;;;;;;13.19;38.12;101456.31;5059813;28;20094;-80
2021/03/26 08:49:01;;;;;;;12.45;8.43;;;;;;;13.22;38.06;101460.69;5059686;28;20122;-80
2021/03/26 08:52:20;;;;;;;14.43;8.85;;;;;;;13.15;38.03;101455.72;5075922;28;20131;-80
2021/03/26 08:55:13;;;;;;;12.65;8.30;;;;;;;13.22;37.56;101463.44;5083529;28;20051;-80
2021/03/26 08:57:51;;;;;;;12.35;8.07;;;;;;;13.26;37.59;101456.63;5087727;28;20110;-80
2021/03/26 09:00:32;;;;;;;10.90;7.03;;;;;;;13.30;37.67;101448.00;5080264;28;20051;-81
2021/03/26 09:03:23;;;;;;;11.35;7.50;;;;;;;13.34;37.95;101452.22;5094017;28;20036;-81
2021/03/26 09:06:15;;;;;;;12.98;7.90;;;;;;;13.37;37.43;101451.06;5072216;28;20040;-81
2021/03/26 09:08:53;;;;;;;12.93;7.97;;;;;;;13.42;37.38;101448.78;5114165;27;20138;-81
2021/03/26 09:11:37;;;;;;;11.63;7.72;;;;;;;13.49;37.50;101447.25;5078830;27;20383;-81
2021/03/26 09:14:24;;;;;;;11.90;7.97;;;;;;;13.54;37.14;101453.19;5078446;28;20039;-81
2021/03/26 09:16:58;;;;;;;10.88;7.40;;;;;;;13.59;37.32;101450.88;5083340;28;20051;-81
2021/03/26 09:19:32;;;;;;;10.82;7.30;;;;;;;13.65;36.84;101441.25;5108579;28;20060;-80
2021/03/26 09:22:17;;;;;;;10.75;7.28;;;;;;;13.72;36.83;101448.78;5117711;27;20039;-82
2021/03/26 09:25:01;;;;;;;10.63;7.18;;;;;;;13.78;36.98;101444.59;5089629;27;20111;-83
2021/03/26 09:27:34;;;;;;;10.93;7.10;;;;;;;13.85;37.34;101446.66;5092713;27;20034;-83
2021/03/26 09:30:16;;;;;;;11.35;7.80;;;;;;;13.93;36.42;101443.25;5078873;28;20075;-82
2021/03/26 09:32:49;;;;;;;11.15;6.80;;;;;;;14.02;37.20;101441.53;5082743;28;20050;-82
2021/03/26 09:35:21;;;;;;;11.63;6.85;;;;;;;14.10;37.24;101438.94;5082315;28;20069;-81
2021/03/26 09:37:54;;;;;;;10.57;7.35;;;;;;;14.17;36.60;101437.34;5081568;27;20046;-82
2021/03/26 09:40:31;;;;;;;10.75;6.57;;;;;;;14.27;36.64;101436.38;5078548;28;20085;-83
2021/03/26 09:43:23;;;;;;;9.30;6.43;;;;;;;14.35;35.79;101432.03;5095811;27;20057;-83
2021/03/26 09:46:09;;;;;;;11.45;6.40;;;;;;;14.45;35.51;101433.78;5078374;28;20044;-81
2021/03/26 09:48:58;;;;;;;9.80;6.18;;;;;;;14.54;35.64;101429.31;5081649;28;20415;-82
2021/03/26 09:51:37;;;;;;;10.43;6.45;;;;;;;14.64;35.50;101428.31;5067807;28;20044;-83
2021/03/26 09:54:15;;;;;;;10.13;6.45;;;;;;;14.77;35.36;101421.63;5081087;28;20073;-83
2021/03/26 09:56:48;;;;;;;10.32;6.18;;;;;;;14.85;35.87;101422.66;5082832;28;20040;-82
2021/03/26 09:59:28;;;;;;;10.00;6.00;;;;;;;14.97;34.76;101409.59;5069870;28;20092;-82
2021/03/26 10:02:06;;;;;;;9.80;6.07;;;;;;;15.03;35.01;101401.59;5078711;28;20048;-82
2021/03/26 10:18:51;;;;;;;8.70;5.55;;;;;;;15.45;33.64;101392.91;4979427;28;20134;-82
2021/03/26 10:31:55;;;;;;;8.43;5.57;;;;;;;15.63;33.46;101376.44;4962948;28;20538;-81
2021/03/26 10:43:22;;;;;;;7.43;4.47;;;;;;;15.69;33.06;101346.38;4935088;29;20107;-82
2021/03/26 10:46:00;;;;;;;7.35;4.43;;;;;;;15.72;32.05;101329.50;4962691;28;20046;-82
2021/03/26 10:48:46;;;;;;;9.25;5.40;;;;;;;15.77;32.60;101345.63;4990650;28;20048;-83
2021/03/26 10:51:42;;;;;;;9.02;5.38;;;;;;;15.76;32.08;101333.72;5029480;28;20037;-82
2021/03/26 10:54:16;;;;;;;6.70;4.68;;;;;;;15.84;32.36;101338.44;5038335;28;20067;-82
2021/03/26 10:56:55;;;;;;;7.50;4.75;;;;;;;15.90;32.06;101332.31;5096954;27;20095;-83
2021/03/26 10:59:31;;;;;;;8.93;5.03;;;;;;;15.94;31.91;101328.22;5088902;28;20044;-81
2021/03/26 11:56:35;;;;;;;5.15;2.90;;;;;;;15.76;30.29;101248.19;4810055;29;20058;-81
2021/03/26 12:08:30;;;;;;;7.00;3.30;;;;;;;15.88;30.43;101232.28;4767661;30;20058;-81
2021/03/26 12:27:30;;;;;;;4.93;2.85;;;;;;;16.01;30.50;101201.53;4755283;30;20047;-82
2021/03/26 12:29:59;;;;;;;5.18;2.97;;;;;;;16.04;30.64;101201.22;4836058;29;20061;-79
2021/03/26 12:37:03;;;;;;;4.53;2.35;;;;;;;16.04;29.79;101184.66;4880738;29;20064;-83
2021/03/26 12:40:06;;;;;;;5.38;2.60;;;;;;;16.08;29.80;101181.41;4867018;29;20113;-80
2021/03/26 12:43:02;;;;;;;5.80;2.88;;;;;;;16.09;29.79;101179.50;4859644;29;20049;-79
2021/03/26 12:45:58;;;;;;;5.43;3.22;;;;;;;16.14;29.87;101183.50;4841376;29;20049;-79
2021/03/26 12:58:45;;;;;;;5.72;3.00;;;;;;;16.20;30.08;101157.19;5041013;28;20055;-80
2021/03/26 13:16:54;;;;;;;5.40;2.30;;;;;;;16.24;29.15;101138.38;4988795;28;20066;-81
2021/03/26 13:19:31;;;;;;;4.60;2.45;;;;;;;16.30;28.76;101137.75;4955124;28;20046;-81
2021/03/26 13:22:21;;;;;;;5.07;2.90;;;;;;;16.27;28.71;101116.84;4962502;28;20127;-81
2021/03/26 13:24:57;;;;;;;5.55;2.70;;;;;;;16.31;28.63;101125.66;4962914;28;20108;-81
2021/03/26 13:27:31;;;;;;;3.78;2.30;;;;;;;16.31;28.62;101109.97;4986550;28;20596;-81
2021/03/26 13:30:05;;;;;;;5.53;2.78;;;;;;;16.33;28.78;101118.09;4957618;28;20068;-79
2021/03/26 13:32:42;;;;;;;4.35;2.40;;;;;;;16.36;28.37;101113.13;4964821;28;20076;-81
2021/03/26 13:35:18;;;;;;;5.13;2.53;;;;;;;16.35;27.88;101108.63;4946230;28;20823;-83
2021/03/26 14:01:11;;;;;;;3.55;1.80;;;;;;;16.34;27.98;101061.84;4983770;28;20053;-82
2021/03/26 14:04:30;;;;;;;4.00;2.08;;;;;;;16.41;27.58;101068.44;4960646;28;20055;-82
2021/03/26 14:08:05;;;;;;;3.20;1.60;;;;;;;16.44;27.24;101062.59;4992780;28;20070;-81
2021/03/26 14:11:44;;;;;;;3.65;1.60;;;;;;;16.47;27.05;101065.03;4962582;28;20034;-81
2021/03/26 14:20:38;;;;;;;2.47;1.30;;;;;;;16.49;27.11;101049.16;4958083;28;20061;-82
2021/03/26 14:28:10;;;;;;;3.47;1.30;;;;;;;16.62;27.19;101043.19;5025046;27;20044;-83
2021/03/26 14:30:50;;;;;;;3.85;1.50;;;;;;;16.67;26.28;101033.38;5118341;27;20498;-81
2021/03/26 14:33:33;;;;;;;4.35;1.63;;;;;;;16.69;25.15;101028.53;5061444;28;20046;-82
2021/03/26 14:36:11;;;;;;;2.80;1.60;;;;;;;16.75;26.25;101030.63;5110310;27;20043;-82
2021/03/26 14:38:42;;;;;;;3.28;1.30;;;;;;;16.78;26.36;101029.44;5116111;27;20052;-81
2021/03/26 14:41:19;;;;;;;1.83;1.10;;;;;;;16.79;26.32;101020.97;5106057;28;20063;-80
2021/03/26 15:29:48;;;;;;;3.60;1.15;;;;;;;16.63;25.90;100987.75;4771102;29;20052;-81
2021/03/26 15:32:58;;;;;;;2.63;1.38;;;;;;;16.62;25.96;100987.97;4828325;29;20064;-81
2021/03/26 15:39:55;;;;;;;2.75;1.25;;;;;;;16.60;25.87;100995.53;4853100;29;20598;-80
2021/03/26 15:42:30;;;;;;;2.78;1.10;;;;;;;16.62;26.04;100986.06;4886257;29;20044;-79
2021/03/26 15:45:04;;;;;;;2.03;1.02;;;;;;;16.64;25.77;100985.88;4905248;29;20047;-81
2021/03/26 15:47:36;;;;;;;3.85;1.25;;;;;;;16.63;25.90;100989.69;4941504;29;20047;-80
2021/03/26 15:50:16;;;;;;;3.58;1.20;;;;;;;16.61;26.00;100973.28;4922687;29;20106;-82
2021/03/26 15:53:32;;;;;;;2.72;1.15;;;;;;;16.54;25.06;100975.00;4907628;29;20044;-81
2021/03/26 15:57:33;;;;;;;2.85;1.33;;;;;;;16.51;25.34;100976.19;4954290;28;20086;-81
2021/03/26 17:44:22;;;;;;;3.97;1.80;;;;;;;15.32;26.71;100962.38;4904095;29;20404;-82
2021/03/26 18:24:51;;;;;;;4.20;1.80;;;;;;;14.96;26.72;100972.59;4893859;29;20041;-82
2021/03/26 18:31:05;;;;;;;4.07;2.10;;;;;;;14.97;27.13;100974.34;4982851;28;20046;-82
2021/03/26 18:37:50;;;;;;;4.07;2.22;;;;;;;14.92;26.73;100974.78;4995378;28;20045;-82
2021/03/26 18:40:27;;;;;;;3.95;1.95;;;;;;;14.93;26.70;100979.28;5001172;28;20033;-83
2021/03/26 18:43:21;;;;;;;4.35;2.13;;;;;;;14.95;26.77;100980.00;5006389;28;20076;-83
2021/03/26 18:46:40;;;;;;;3.58;1.85;;;;;;;14.88;27.09;100981.66;5006787;28;20046;-83
2021/03/26 18:49:47;;;;;;;3.75;1.92;;;;;;;14.81;27.14;100979.69;5016795;28;20049;-83
2021/03/26 18:52:28;;;;;;;4.27;2.10;;;;;;;14.86;26.88;100983.69;5016746;28;20144;-84
2021/03/26 18:55:34;;;;;;;4.70;2.17;;;;;;;14.81;26.85;100985.19;5032683;28;20051;-81
2021/03/26 18:58:40;;;;;;;3.65;1.85;;;;;;;14.79;26.89;100974.34;5077855;28;20040;-84
2021/03/26 19:01:20;;;;;;;4.78;2.38;;;;;;;14.83;26.80;100975.75;5093996;28;20097;-83
2021/03/26 19:03:56;;;;;;;4.43;2.30;;;;;;;14.80;27.24;100981.59;5084445;28;20130;-81
2021/03/26 19:06:32;;;;;;;3.60;2.40;;;;;;;14.82;26.63;100978.69;5077305;28;20040;-83
2021/03/26 19:09:25;;;;;;;4.22;2.50;;;;;;;14.79;26.86;100976.22;5110536;28;20044;-83
2021/03/26 19:12:02;;;;;;;4.85;2.55;;;;;;;14.78;26.78;100974.50;5083930;28;20071;-81
2021/03/26 19:14:44;;;;;;;4.88;2.72;;;;;;;14.74;27.28;100973.88;5090191;28;20127;-80
2021/03/26 19:17:22;;;;;;;4.10;2.40;;;;;;;14.74;27.04;100971.13;5075588;28;20062;-83
2021/03/26 19:20:03;;;;;;;4.47;2.45;;;;;;;14.71;27.01;100968.72;5059013;28;20105;-83
2021/03/26 19:22:45;;;;;;;4.35;2.67;;;;;;;14.71;27.32;100965.97;5068924;27;20104;-81
2021/03/26 19:25:28;;;;;;;4.30;2.45;;;;;;;14.67;27.29;100972.78;5116335;27;20448;-82
2021/03/26 19:28:20;;;;;;;4.00;2.23;;;;;;;14.65;27.25;100963.84;5099803;27;20043;-83
2021/03/26 19:31:06;;;;;;;3.88;2.30;;;;;;;14.64;27.25;100967.63;5099125;27;20287;-83
2021/03/26 19:33:46;;;;;;;3.75;2.05;;;;;;;14.64;27.23;100965.72;5099535;27;20047;-82
2021/03/26 19:36:27;;;;;;;4.57;2.10;;;;;;;14.63;27.19;100955.72;5099655;27;20050;-83
2021/03/26 19:39:03;;;;;;;3.78;2.08;;;;;;;14.63;27.17;100950.22;5101182;27;20047;-81
2021/03/26 19:41:38;;;;;;;3.67;2.30;;;;;;;14.63;27.36;100949.38;5101308;27;20043;-83
2021/03/26 19:44:17;;;;;;;4.43;2.38;;;;;;;14.64;27.35;100949.22;5100724;27;20054;-83
2021/03/26 19:46:58;;;;;;;5.05;2.58;;;;;;;14.63;27.44;100947.47;5117584;27;20050;-82
2021/03/26 19:49:35;;;;;;;4.35;2.08;;;;;;;14.64;27.33;100942.84;5076073;28;20043;-83
2021/03/26 19:52:14;;;;;;;4.63;2.78;;;;;;;14.63;27.44;100933.72;5061661;27;20044;-83
2021/03/26 19:54:51;;;;;;;4.20;2.45;;;;;;;14.63;27.62;100933.72;5087621;28;20059;-84
2021/03/26 19:57:27;;;;;;;4.28;2.67;;;;;;;14.63;27.50;100932.84;5074580;28;20044;-80
2021/03/26 20:00:14;;;;;;;3.55;2.22;;;;;;;14.64;27.69;100929.06;5088625;28;20035;-81
2021/03/26 20:38:03;;;;;;;4.13;1.90;;;;;;;14.19;28.17;100874.94;4950882;29;20097;-80
2021/03/26 20:40:33;;;;;;;3.22;2.20;;;;;;;14.19;28.17;100869.44;4951747;29;20051;-83
2021/03/26 21:06:13;;;;;;;3.67;2.22;;;;;;;13.96;28.48;100856.28;4818747;29;20045;-82
2021/03/26 21:41:59;;;;;;;4.75;2.80;;;;;;;13.69;29.17;100813.13;4885102;29;20186;-83
2021/03/26 21:44:50;;;;;;;3.80;2.42;;;;;;;13.70;29.10;100807.47;4905840;29;20059;-82
2021/03/26 21:52:08;;;;;;;4.80;2.55;;;;;;;13.71;29.35;100789.97;4962189;28;20345;-80
2021/03/26 21:59:13;;;;;;;4.88;3.13;;;;;;;13.65;29.33;100784.25;4972443;28;20039;-79
2021/03/26 22:01:47;;;;;;;4.82;2.83;;;;;;;13.67;29.39;100780.28;4947903;28;20054;-81
2021/03/26 22:04:22;;;;;;;5.32;3.10;;;;;;;13.67;29.24;100773.94;4982924;28;20544;-83
2021/03/26 22:07:12;;;;;;;5.93;3.38;;;;;;;13.67;29.20;100773.94;5083243;22;20152;-80
2021/03/26 22:10:12;;;;;;;4.65;2.70;;;;;;;13.68;29.39;100767.41;5111959;28;20040;-80
2021/03/26 22:13:13;;;;;;;4.50;3.00;;;;;;;13.63;29.14;100756.91;5076414;28;20222;-80
2021/03/26 22:16:18;;;;;;;5.22;2.92;;;;;;;13.63;29.49;100753.28;5122114;27;20051;-80
2021/03/26 22:19:02;;;;;;;5.15;3.50;;;;;;;13.64;29.45;100750.38;5120412;27;20073;-80
2021/03/26 22:21:43;;;;;;;5.68;3.63;;;;;;;13.64;29.53;100741.28;5136468;27;20099;-82
2021/03/26 22:24:43;;;;;;;5.35;3.50;;;;;;;13.62;29.72;100741.44;5096752;27;20046;-80
2021/03/26 22:27:42;;;;;;;6.75;3.63;;;;;;;13.59;29.69;100733.47;5099165;28;20125;-81
2021/03/26 22:30:23;;;;;;;5.80;3.13;;;;;;;13.58;29.76;100742.78;5123318;27;20047;-81
2021/03/26 22:32:57;;;;;;;5.78;3.67;;;;;;;13.60;29.51;100726.97;5097780;28;20288;-80
2021/03/26 22:35:34;;;;;;;5.55;3.50;;;;;;;13.61;29.66;100725.09;5107124;27;20051;-81
2021/03/26 22:38:11;;;;;;;6.18;4.00;;;;;;;13.58;29.38;100715.28;5114778;28;20039;-82
2021/03/26 22:40:42;;;;;;;5.85;3.55;;;;;;;13.56;29.51;100717.31;5133718;27;20050;-80
2021/03/26 22:43:21;;;;;;;5.82;3.95;;;;;;;13.58;29.73;100718.03;5099928;28;20421;-82
2021/03/26 22:45:54;;;;;;;5.53;3.92;;;;;;;13.56;29.72;100714.56;5106708;28;20532;-81
2021/03/26 22:52:16;;;;;;;6.35;3.60;;;;;;;13.51;29.91;100698.53;5125467;27;20081;-82
2021/03/26 22:54:58;;;;;;;6.25;3.42;;;;;;;13.49;30.06;100696.97;5131696;27;20054;-82
2021/03/26 22:57:35;;;;;;;6.50;4.00;;;;;;;13.51;29.86;100695.78;5104575;28;20039;-81
2021/03/26 23:00:23;;;;;;;5.82;4.03;;;;;;;13.50;29.82;100696.78;5099929;27;20057;-82
2021/03/26 23:02:55;;;;;;;6.85;3.63;;;;;;;13.47;30.15;100694.38;5129460;27;20036;-82
2021/03/26 23:09:11;;;;;;;6.10;3.42;;;;;;;13.42;30.08;100696.72;5068520;27;20794;-82